Main page
METAR-TAF:

METAR-TAF

Airports :

Córdoba Airport

Córdoba, Spain

latitude: 37-51N, longitude: 004-51W, elevation: 90 m

Current weather observation

The report was made 42 minutes ago, at 07:30 UTC
Wind 1 kt from variable directions
Temperature 6°C
Humidity 70%
Pressure 1025 hPa
Visibility 10 km or more
no clouds below 1500 m and no cumulonimbus

METAR: LEBA 200730Z VRB01KT CAVOK 06/01 Q1025

Time: 09:12 (08:12 UTC)

Forecast

The report was made 3 hours and 12 minutes ago, at 05:00 UTC
Forecast valid from 20 at 06 UTC to 20 at 15 UTC
Wind 5 kt from the East
Visibility 10 km or more
no clouds below 1500 m and no cumulonimbus

TAF: LEBA 200500Z 2006/2015 09005KT CAVOK

Weather observations and forecasts of more than 4000 airports (METAR and TAF reports).

The available stations are represented by yellow and red dots on the map.

Hover mouse over dot to see the name of the station.

Then click to see weather observations and forecasts.

To change the map : click on the green buttons with a black cross to zoom in, on the green button with a dash to zoom out, or on the green arrows for adjacent maps.


METAR-TAF: